Time;durP1;ratioP1;P1;durP2;ratioP2;P2;SDS_P1;SDS_P2;PMS_P1;PMS_P2;Temp;Humidity;BMP_temperature;BMP_pressure;BME280_temperature;BME280_humidity;BME280_pressure;Samples;Min_cycle;Max_cycle;Signal;HPM_P1;HPM_P2
2022/05/25 00:00:42;;;;;;;22.23;17.98;;;;;;;;;;7393502;19;20015;-58
2022/05/25 00:03:11;;;;;;;21.25;18.92;;;;;;;;;;7394082;19;20467;-59
2022/05/25 00:05:40;;;;;;;23.75;19.83;;;;;;;;;;7393897;19;20017;-61
2022/05/25 00:08:11;;;;;;;23.42;20.38;;;;;;;;;;7394293;19;20506;-60
2022/05/25 00:10:43;;;;;;;23.50;19.38;;;;;;;;;;7394227;19;20056;-60
2022/05/25 00:13:11;;;;;;;22.77;20.27;;;;;;;;;;7394618;19;20459;-60
2022/05/25 00:15:40;;;;;;;25.25;20.40;;;;;;;;;;7393109;19;20025;-57
2022/05/25 00:18:09;;;;;;;24.17;20.20;;;;;;;;;;7393498;19;20015;-61
2022/05/25 00:20:35;;;;;;;25.65;21.17;;;;;;;;;;7392563;19;20011;-60
2022/05/25 00:23:04;;;;;;;23.83;20.77;;;;;;;;;;7393612;19;20328;-56
2022/05/25 00:25:33;;;;;;;24.17;20.45;;;;;;;;;;7393440;19;20010;-60
2022/05/25 00:28:05;;;;;;;21.13;18.80;;;;;;;;;;7395320;19;20039;-61
2022/05/25 00:30:34;;;;;;;23.83;20.02;;;;;;;;;;7392423;19;20022;-61
2022/05/25 00:33:03;;;;;;;23.67;19.45;;;;;;;;;;7393221;19;20029;-55
2022/05/25 00:35:32;;;;;;;23.33;20.17;;;;;;;;;;7392128;19;20018;-60
2022/05/25 00:38:00;;;;;;;22.90;20.25;;;;;;;;;;7393240;19;20086;-60
2022/05/25 00:40:31;;;;;;;28.17;21.58;;;;;;;;;;7391759;19;20019;-60
2022/05/25 00:42:59;;;;;;;23.05;19.98;;;;;;;;;;7393111;19;20018;-60
2022/05/25 00:45:31;;;;;;;23.58;20.85;;;;;;;;;;7396549;19;20017;-60
2022/05/25 00:48:00;;;;;;;22.08;19.75;;;;;;;;;;7392975;19;20024;-60
2022/05/25 00:51:12;;;;;;;24.58;21.70;;;;;;;;;;7392617;19;20483;-60
2022/05/25 00:53:17;;;;;;;24.58;21.15;;;;;;;;;;7392528;19;20302;-55
2022/05/25 00:55:46;;;;;;;26.67;21.30;;;;;;;;;;7391894;19;20047;-59
2022/05/25 00:58:15;;;;;;;24.58;21.85;;;;;;;;;;7392573;19;20019;-61
2022/05/25 01:00:46;;;;;;;25.48;21.67;;;;;;;;;;7394754;19;20010;-60
2022/05/25 01:03:15;;;;;;;24.90;21.42;;;;;;;;;;7390522;19;20020;-61
2022/05/25 01:05:49;;;;;;;23.70;21.08;;;;;;;;;;7390889;19;20025;-60
2022/05/25 01:08:27;;;;;;;24.80;22.05;;;;;;;;;;7392707;19;20018;-60
2022/05/25 01:11:06;;;;;;;25.80;21.23;;;;;;;;;;7390834;19;20571;-59
2022/05/25 01:13:39;;;;;;;24.08;20.77;;;;;;;;;;7392516;19;20021;-60
2022/05/25 01:16:14;;;;;;;22.15;19.35;;;;;;;;;;7392380;19;20320;-58
2022/05/25 01:18:48;;;;;;;24.98;21.42;;;;;;;;;;7392393;19;20477;-60
2022/05/25 01:21:20;;;;;;;23.02;20.48;;;;;;;;;;7391608;19;20014;-61
2022/05/25 01:24:09;;;;;;;25.58;21.38;;;;;;;;;;7390932;19;20015;-60
2022/05/25 01:26:53;;;;;;;25.88;20.50;;;;;;;;;;7390097;19;20011;-62
2022/05/25 01:29:40;;;;;;;25.30;20.52;;;;;;;;;;7390996;19;20015;-55
2022/05/25 01:32:11;;;;;;;25.27;21.25;;;;;;;;;;7392912;19;20599;-59
2022/05/25 01:34:42;;;;;;;24.33;20.63;;;;;;;;;;7391750;19;20070;-59
2022/05/25 01:37:15;;;;;;;25.23;21.05;;;;;;;;;;7389964;19;20025;-56
2022/05/25 01:39:46;;;;;;;28.35;22.13;;;;;;;;;;7390387;19;20019;-58
2022/05/25 01:42:18;;;;;;;29.67;25.30;;;;;;;;;;7391700;19;20701;-61
2022/05/25 01:44:51;;;;;;;32.27;28.63;;;;;;;;;;7389468;19;20579;-58
2022/05/25 01:47:20;;;;;;;36.83;30.58;;;;;;;;;;7389063;19;20149;-62
2022/05/25 01:49:52;;;;;;;26.58;23.77;;;;;;;;;;7393572;19;20433;-60
2022/05/25 01:52:22;;;;;;;27.75;22.85;;;;;;;;;;7391290;19;20026;-61
2022/05/25 01:54:52;;;;;;;27.33;22.58;;;;;;;;;;7388759;19;20017;-62
2022/05/25 01:57:23;;;;;;;24.20;19.67;;;;;;;;;;7391809;19;20349;-60
2022/05/25 01:59:54;;;;;;;23.92;18.30;;;;;;;;;;7389082;19;20379;-63
2022/05/25 02:05:06;;;;;;;20.60;17.70;;;;;;;;;;7390855;19;20160;-61
2022/05/25 02:07:41;;;;;;;19.42;16.75;;;;;;;;;;7388433;19;20047;-60
2022/05/25 02:10:19;;;;;;;19.90;17.15;;;;;;;;;;7389136;19;20168;-60
2022/05/25 02:12:54;;;;;;;21.15;17.27;;;;;;;;;;7389881;19;20018;-61
2022/05/25 02:15:29;;;;;;;22.42;16.70;;;;;;;;;;7390128;19;20029;-61
2022/05/25 02:18:03;;;;;;;18.35;15.70;;;;;;;;;;7391346;19;20021;-61
2022/05/25 02:20:35;;;;;;;22.90;17.15;;;;;;;;;;7396688;19;20099;-59
2022/05/25 02:23:07;;;;;;;22.55;17.73;;;;;;;;;;7397304;19;20018;-61
2022/05/25 02:25:39;;;;;;;21.77;17.90;;;;;;;;;;7394210;19;20463;-61
2022/05/25 02:28:09;;;;;;;19.80;17.27;;;;;;;;;;7397173;19;20025;-61
2022/05/25 02:30:43;;;;;;;22.75;18.65;;;;;;;;;;7398702;19;20247;-61
2022/05/25 02:33:13;;;;;;;23.08;18.13;;;;;;;;;;7397384;19;20016;-61
2022/05/25 02:35:43;;;;;;;21.58;17.42;;;;;;;;;;7395939;19;20026;-61
2022/05/25 02:38:11;;;;;;;21.65;17.95;;;;;;;;;;7397832;19;20046;-59
2022/05/25 02:40:41;;;;;;;19.58;16.30;;;;;;;;;;7395041;19;20029;-61
2022/05/25 02:43:10;;;;;;;43.60;38.88;;;;;;;;;;7397882;19;20017;-60
2022/05/25 02:45:41;;;;;;;25.33;18.38;;;;;;;;;;7395273;19;20022;-61
2022/05/25 02:48:10;;;;;;;23.63;17.15;;;;;;;;;;7396419;19;20015;-61
2022/05/25 02:50:39;;;;;;;25.38;18.80;;;;;;;;;;7395647;19;20033;-61
2022/05/25 02:53:11;;;;;;;20.40;16.55;;;;;;;;;;7396275;19;20023;-58
2022/05/25 02:55:39;;;;;;;;;;;;;;;;;;7397456;19;20050;-61
2022/05/25 02:58:08;;;;;;;23.30;17.48;;;;;;;;;;7396450;19;20346;-61
2022/05/25 03:00:36;;;;;;;22.20;18.10;;;;;;;;;;7395643;19;20030;-61
2022/05/25 03:03:08;;;;;;;24.38;19.42;;;;;;;;;;7400390;19;20014;-58
2022/05/25 03:05:36;;;;;;;26.00;18.55;;;;;;;;;;7393745;19;20025;-60
2022/05/25 03:08:05;;;;;;;22.85;19.20;;;;;;;;;;7395970;19;20026;-61
2022/05/25 03:10:34;;;;;;;22.92;19.13;;;;;;;;;;7395263;19;20015;-61
2022/05/25 03:13:02;;;;;;;22.20;19.17;;;;;;;;;;7396377;19;20015;-61
2022/05/25 03:15:30;;;;;;;26.52;19.02;;;;;;;;;;7395512;19;20502;-59
2022/05/25 03:17:59;;;;;;;21.55;17.42;;;;;;;;;;7396980;19;20021;-61
2022/05/25 03:20:31;;;;;;;22.98;18.48;;;;;;;;;;7394137;19;20011;-61
2022/05/25 03:22:59;;;;;;;20.33;17.42;;;;;;;;;;7395810;19;20024;-61
2022/05/25 03:25:28;;;;;;;23.13;17.88;;;;;;;;;;7393326;19;20375;-59
2022/05/25 03:27:56;;;;;;;21.15;17.88;;;;;;;;;;7394994;19;20015;-58
2022/05/25 03:30:25;;;;;;;20.20;16.33;;;;;;;;;;7393962;19;20021;-61
2022/05/25 03:32:53;;;;;;;24.10;17.75;;;;;;;;;;7395369;19;20343;-61
2022/05/25 03:35:22;;;;;;;21.88;17.55;;;;;;;;;;7399152;19;20019;-58
2022/05/25 03:37:53;;;;;;;23.48;17.85;;;;;;;;;;7395101;19;20014;-60
2022/05/25 03:40:21;;;;;;;20.73;15.13;;;;;;;;;;7393852;19;20010;-60
2022/05/25 03:42:50;;;;;;;18.85;16.00;;;;;;;;;;7395089;19;20010;-59
2022/05/25 03:45:22;;;;;;;20.15;16.63;;;;;;;;;;7392629;19;20472;-61
2022/05/25 03:47:50;;;;;;;21.20;16.10;;;;;;;;;;7395144;19;20014;-61
2022/05/25 03:50:19;;;;;;;20.05;15.95;;;;;;;;;;7394769;19;20011;-60
2022/05/25 03:52:48;;;;;;;21.00;16.27;;;;;;;;;;7394312;19;20021;-61
2022/05/25 03:55:19;;;;;;;20.27;16.08;;;;;;;;;;7394828;19;20018;-60
2022/05/25 03:57:48;;;;;;;21.75;16.70;;;;;;;;;;7395012;19;20011;-61
2022/05/25 04:00:17;;;;;;;20.48;16.20;;;;;;;;;;7393884;19;20037;-61
2022/05/25 04:02:45;;;;;;;20.13;15.80;;;;;;;;;;7395901;19;20519;-61
2022/05/25 04:05:14;;;;;;;21.75;16.23;;;;;;;;;;7393458;19;20014;-61
2022/05/25 04:07:43;;;;;;;19.08;14.77;;;;;;;;;;7398733;19;20513;-59
2022/05/25 04:10:13;;;;;;;19.75;13.68;;;;;;;;;;7393897;19;20006;-60
2022/05/25 04:12:45;;;;;;;20.67;15.70;;;;;;;;;;7395617;19;20019;-61
2022/05/25 04:15:15;;;;;;;18.85;14.40;;;;;;;;;;7394776;19;20471;-61
2022/05/25 04:17:44;;;;;;;20.88;15.77;;;;;;;;;;7395443;19;20010;-61
2022/05/25 04:20:13;;;;;;;19.90;15.70;;;;;;;;;;7393234;19;20007;-60
2022/05/25 04:22:42;;;;;;;22.17;16.02;;;;;;;;;;7396216;19;20347;-61
2022/05/25 04:25:12;;;;;;;21.60;15.95;;;;;;;;;;7393492;19;20007;-61
2022/05/25 04:27:42;;;;;;;20.70;16.30;;;;;;;;;;7392617;19;20014;-59
2022/05/25 04:30:15;;;;;;;24.10;16.98;;;;;;;;;;7393368;19;20015;-61
2022/05/25 04:32:44;;;;;;;23.73;16.73;;;;;;;;;;7394528;19;20082;-61
2022/05/25 04:35:13;;;;;;;22.80;17.33;;;;;;;;;;7394082;19;20010;-61
2022/05/25 04:37:57;;;;;;;21.75;17.13;;;;;;;;;;7394183;19;20019;-61
2022/05/25 04:40:28;;;;;;;22.88;17.45;;;;;;;;;;7395967;19;20011;-60
2022/05/25 04:42:57;;;;;;;21.48;17.50;;;;;;;;;;7394145;19;20087;-62
2022/05/25 04:45:28;;;;;;;21.70;17.42;;;;;;;;;;7392461;19;20025;-61
2022/05/25 04:47:57;;;;;;;18.08;16.13;;;;;;;;;;7394711;19;20017;-60
2022/05/25 04:50:26;;;;;;;21.55;16.92;;;;;;;;;;7392554;19;20467;-61
2022/05/25 04:52:56;;;;;;;20.45;16.20;;;;;;;;;;7394695;19;20038;-61
2022/05/25 04:58:06;;;;;;;22.83;17.83;;;;;;;;;;7398094;19;20021;-60
2022/05/25 05:00:37;;;;;;;24.27;18.65;;;;;;;;;;7395356;19;20015;-60
2022/05/25 05:03:05;;;;;;;26.10;18.65;;;;;;;;;;7395734;19;20021;-61
2022/05/25 05:05:34;;;;;;;19.88;16.83;;;;;;;;;;7392819;19;20015;-60
2022/05/25 05:08:03;;;;;;;19.45;16.98;;;;;;;;;;7394637;19;20014;-59
2022/05/25 05:10:31;;;;;;;25.95;17.55;;;;;;;;;;7396762;19;20030;-61
2022/05/25 05:13:04;;;;;;;23.73;17.80;;;;;;;;;;7399990;19;20010;-62
2022/05/25 05:15:32;;;;;;;;;;;;;;;;;;7397008;19;20066;-60
2022/05/25 05:18:04;;;;;;;22.50;17.65;;;;;;;;;;7395747;19;20312;-63
2022/05/25 05:20:53;;;;;;;21.15;16.77;;;;;;;;;;7391038;19;20022;-61
2022/05/25 05:23:22;;;;;;;23.25;17.67;;;;;;;;;;7392880;19;20490;-61
2022/05/25 05:25:50;;;;;;;18.92;15.43;;;;;;;;;;7391380;19;20029;-61
2022/05/25 05:28:20;;;;;;;18.85;15.95;;;;;;;;;;7394744;19;20026;-61
2022/05/25 05:30:50;;;;;;;20.73;16.15;;;;;;;;;;7392088;19;20014;-61
2022/05/25 05:33:21;;;;;;;22.90;17.23;;;;;;;;;;7392811;19;20493;-60
2022/05/25 05:35:52;;;;;;;23.92;17.35;;;;;;;;;;7392140;19;20028;-61
2022/05/25 05:38:21;;;;;;;20.30;15.55;;;;;;;;;;7392797;19;20087;-62
2022/05/25 05:40:50;;;;;;;24.38;15.93;;;;;;;;;;7391193;19;20035;-62
2022/05/25 05:43:19;;;;;;;20.63;15.45;;;;;;;;;;7391912;19;20433;-62
2022/05/25 05:45:48;;;;;;;20.88;16.20;;;;;;;;;;7394933;19;20372;-65
2022/05/25 05:48:19;;;;;;;22.35;15.93;;;;;;;;;;7392897;19;20352;-61
2022/05/25 05:50:51;;;;;;;19.83;15.00;;;;;;;;;;7392461;19;20014;-61
2022/05/25 05:53:19;;;;;;;25.00;15.52;;;;;;;;;;7399454;19;20014;-62
2022/05/25 05:55:49;;;;;;;19.65;15.52;;;;;;;;;;7399580;19;20042;-62
2022/05/25 05:58:17;;;;;;;20.80;14.63;;;;;;;;;;7398727;19;20345;-62
2022/05/25 06:00:46;;;;;;;20.02;15.23;;;;;;;;;;7400678;19;20029;-62
2022/05/25 06:03:15;;;;;;;21.75;15.35;;;;;;;;;;7400930;19;20010;-62
2022/05/25 06:05:44;;;;;;;21.00;15.13;;;;;;;;;;7398350;19;20019;-59
2022/05/25 06:08:16;;;;;;;18.60;14.35;;;;;;;;;;7400475;19;20011;-61
2022/05/25 06:10:44;;;;;;;19.08;14.52;;;;;;;;;;7399636;19;20017;-63
2022/05/25 06:13:13;;;;;;;19.35;14.35;;;;;;;;;;7398508;19;20015;-62
2022/05/25 06:21:09;;;;;;;18.33;13.90;;;;;;;;;;7399023;19;20010;-59
2022/05/25 06:23:40;;;;;;;19.00;12.88;;;;;;;;;;7399620;19;20018;-63
2022/05/25 06:26:09;;;;;;;21.23;14.48;;;;;;;;;;7397037;19;20019;-61
2022/05/25 06:28:37;;;;;;;20.48;14.00;;;;;;;;;;7399588;19;20015;-60
2022/05/25 06:31:06;;;;;;;20.33;13.63;;;;;;;;;;7398227;19;20048;-59
2022/05/25 06:33:34;;;;;;;20.27;13.63;;;;;;;;;;7401437;19;20014;-60
2022/05/25 06:36:13;;;;;;;18.75;13.15;;;;;;;;;;7398149;19;20476;-60
2022/05/25 06:38:44;;;;;;;17.23;12.68;;;;;;;;;;7399697;19;20011;-58
2022/05/25 06:41:13;;;;;;;18.38;13.05;;;;;;;;;;7398848;19;20102;-61
2022/05/25 06:43:41;;;;;;;20.75;13.43;;;;;;;;;;7395830;19;20082;-61
2022/05/25 06:46:11;;;;;;;18.40;13.32;;;;;;;;;;7400999;19;20499;-58
2022/05/25 06:48:40;;;;;;;21.75;13.82;;;;;;;;;;7399465;19;20015;-58
2022/05/25 06:51:11;;;;;;;21.75;13.70;;;;;;;;;;7399001;19;20021;-61
2022/05/25 06:53:40;;;;;;;21.55;13.20;;;;;;;;;;7398248;19;20022;-60
2022/05/25 06:56:11;;;;;;;16.98;12.85;;;;;;;;;;7397878;19;20014;-61
2022/05/25 06:58:39;;;;;;;19.65;13.55;;;;;;;;;;7398747;19;20090;-61
2022/05/25 07:01:08;;;;;;;21.98;12.18;;;;;;;;;;7398304;19;20015;-59
2022/05/25 07:03:38;;;;;;;19.42;12.50;;;;;;;;;;7397569;19;20019;-60
2022/05/25 07:06:06;;;;;;;24.15;13.98;;;;;;;;;;7401155;19;20333;-59
2022/05/25 07:08:35;;;;;;;19.48;12.52;;;;;;;;;;7398188;19;20462;-59
2022/05/25 07:11:04;;;;;;;17.98;12.43;;;;;;;;;;7399117;19;20018;-57
2022/05/25 07:13:35;;;;;;;20.90;13.05;;;;;;;;;;7399772;19;20007;-61
2022/05/25 07:16:05;;;;;;;26.92;14.02;;;;;;;;;;7399400;19;20019;-61
2022/05/25 07:18:34;;;;;;;133.95;20.10;;;;;;;;;;7401802;19;20033;-60
2022/05/25 07:21:04;;;;;;;18.80;13.25;;;;;;;;;;7401578;19;20029;-61
2022/05/25 07:23:33;;;;;;;24.98;12.57;;;;;;;;;;7402972;19;20033;-61
2022/05/25 07:26:02;;;;;;;15.50;11.43;;;;;;;;;;7402319;19;20014;-61
2022/05/25 07:28:31;;;;;;;18.45;11.90;;;;;;;;;;7400145;19;20011;-60
2022/05/25 07:31:05;;;;;;;19.48;12.40;;;;;;;;;;7396965;19;20483;-61
2022/05/25 07:33:34;;;;;;;14.82;10.63;;;;;;;;;;7397919;19;20011;-56
2022/05/25 07:36:04;;;;;;;16.60;10.43;;;;;;;;;;7397128;19;20104;-56
2022/05/25 07:38:33;;;;;;;15.52;10.93;;;;;;;;;;7401155;19;20026;-57
2022/05/25 07:41:02;;;;;;;15.20;10.32;;;;;;;;;;7396189;19;20014;-57
2022/05/25 07:43:32;;;;;;;15.40;10.68;;;;;;;;;;7397044;19;20018;-61
2022/05/25 07:46:03;;;;;;;16.13;11.35;;;;;;;;;;7396263;19;20087;-58
2022/05/25 07:48:32;;;;;;;14.98;11.55;;;;;;;;;;7398234;19;20010;-58
2022/05/25 07:51:01;;;;;;;16.30;11.30;;;;;;;;;;7398383;19;20026;-61
2022/05/25 07:56:10;;;;;;;15.02;11.45;;;;;;;;;;7396189;19;20119;-60
2022/05/25 07:58:39;;;;;;;15.63;11.25;;;;;;;;;;7396543;19;20022;-61
2022/05/25 08:01:12;;;;;;;18.13;12.00;;;;;;;;;;7395972;19;20052;-56
2022/05/25 08:06:22;;;;;;;17.13;12.63;;;;;;;;;;7395064;19;20019;-58
2022/05/25 08:08:51;;;;;;;18.95;12.90;;;;;;;;;;7396114;19;20018;-61
2022/05/25 08:11:21;;;;;;;18.70;13.40;;;;;;;;;;7400325;19;20619;-60
2022/05/25 08:13:51;;;;;;;21.08;14.85;;;;;;;;;;7396914;19;20014;-60
2022/05/25 08:16:22;;;;;;;20.95;14.75;;;;;;;;;;7394551;19;20015;-58
2022/05/25 08:18:50;;;;;;;18.02;14.70;;;;;;;;;;7397710;19;20013;-60
2022/05/25 08:21:19;;;;;;;17.83;15.55;;;;;;;;;;7395747;19;20033;-57
2022/05/25 08:23:47;;;;;;;17.55;15.57;;;;;;;;;;7395084;19;20098;-60
2022/05/25 08:26:16;;;;;;;19.58;15.32;;;;;;;;;;7394564;19;20018;-61
2022/05/25 08:28:44;;;;;;;19.33;15.48;;;;;;;;;;7395905;19;20397;-62
2022/05/25 08:31:13;;;;;;;20.27;16.38;;;;;;;;;;7395278;19;20011;-60
2022/05/25 08:33:44;;;;;;;18.08;14.85;;;;;;;;;;7394892;19;20549;-61
2022/05/25 08:36:12;;;;;;;19.08;15.90;;;;;;;;;;7393872;19;20018;-60
2022/05/25 08:38:41;;;;;;;22.00;14.40;;;;;;;;;;7394662;19;20486;-56
2022/05/25 08:41:09;;;;;;;24.27;14.95;;;;;;;;;;7395129;19;20017;-59
2022/05/25 08:43:42;;;;;;;23.70;14.48;;;;;;;;;;7397612;19;20341;-56
2022/05/25 08:46:14;;;;;;;16.17;13.70;;;;;;;;;;7394954;19;20022;-61
2022/05/25 08:48:45;;;;;;;15.48;13.98;;;;;;;;;;7395711;19;20060;-59
2022/05/25 08:51:15;;;;;;;16.67;14.95;;;;;;;;;;7394649;19;20015;-63
2022/05/25 08:53:44;;;;;;;19.58;16.33;;;;;;;;;;7395634;19;20029;-58
2022/05/25 08:56:18;;;;;;;17.63;15.82;;;;;;;;;;7394335;19;20046;-60
2022/05/25 08:58:48;;;;;;;22.25;18.80;;;;;;;;;;7395902;19;20021;-60
2022/05/25 09:01:20;;;;;;;22.00;17.02;;;;;;;;;;7393979;19;20504;-62
2022/05/25 09:03:55;;;;;;;18.88;16.92;;;;;;;;;;7398670;19;20040;-62
2022/05/25 09:06:30;;;;;;;20.38;16.48;;;;;;;;;;7393366;19;20022;-63
2022/05/25 09:09:06;;;;;;;17.08;15.27;;;;;;;;;;7393717;19;20367;-61
2022/05/25 09:11:38;;;;;;;16.98;15.18;;;;;;;;;;7393517;19;20015;-61
2022/05/25 09:14:10;;;;;;;21.25;15.95;;;;;;;;;;7394405;19;20015;-62
2022/05/25 09:16:38;;;;;;;16.17;14.35;;;;;;;;;;7397236;19;20014;-61
2022/05/25 09:19:12;;;;;;;18.40;15.55;;;;;;;;;;7393608;19;20361;-62
2022/05/25 09:21:42;;;;;;;20.20;15.27;;;;;;;;;;7391832;19;20086;-62
2022/05/25 09:24:12;;;;;;;16.20;13.38;;;;;;;;;;7393327;19;20022;-62
2022/05/25 09:26:42;;;;;;;16.73;14.75;;;;;;;;;;7392479;19;20026;-62
2022/05/25 09:29:11;;;;;;;20.13;15.52;;;;;;;;;;7391863;19;20022;-61
2022/05/25 09:31:43;;;;;;;26.02;16.98;;;;;;;;;;7394460;19;20014;-62
2022/05/25 09:34:17;;;;;;;23.33;17.98;;;;;;;;;;7393111;19;20015;-59
2022/05/25 09:36:48;;;;;;;24.00;19.20;;;;;;;;;;7391765;19;20045;-63
2022/05/25 09:39:18;;;;;;;24.17;20.20;;;;;;;;;;7392598;19;20011;-61
2022/05/25 09:41:47;;;;;;;27.38;22.20;;;;;;;;;;7393239;19;20086;-60
2022/05/25 09:44:18;;;;;;;27.38;24.33;;;;;;;;;;7393401;19;20010;-62
2022/05/25 09:46:50;;;;;;;30.25;25.85;;;;;;;;;;7392774;19;20051;-62
2022/05/25 09:49:31;;;;;;;33.90;26.23;;;;;;;;;;7395420;19;20017;-61
2022/05/25 09:52:02;;;;;;;33.50;27.33;;;;;;;;;;7393569;19;20372;-61
2022/05/25 09:54:32;;;;;;;31.58;27.17;;;;;;;;;;7393776;19;20254;-62
2022/05/25 09:57:05;;;;;;;30.60;26.95;;;;;;;;;;7392627;19;20483;-61
2022/05/25 09:59:35;;;;;;;33.63;27.05;;;;;;;;;;7392771;19;20011;-60
2022/05/25 10:02:05;;;;;;;28.25;22.95;;;;;;;;;;7393059;19;20066;-61
2022/05/25 10:04:51;;;;;;;42.83;24.80;;;;;;;;;;7393004;19;20019;-61
2022/05/25 10:07:21;;;;;;;24.17;21.60;;;;;;;;;;7389669;19;20019;-60
2022/05/25 10:09:52;;;;;;;25.83;22.40;;;;;;;;;;7390932;19;20427;-60
2022/05/25 10:12:25;;;;;;;32.58;22.35;;;;;;;;;;7392223;19;20025;-59
2022/05/25 10:14:57;;;;;;;26.08;21.42;;;;;;;;;;7393402;19;20006;-59
2022/05/25 10:17:35;;;;;;;24.13;20.92;;;;;;;;;;7390567;19;20010;-61
2022/05/25 10:20:07;;;;;;;21.20;18.92;;;;;;;;;;7396097;19;20010;-60
2022/05/25 10:22:38;;;;;;;22.58;18.52;;;;;;;;;;7392282;19;20018;-55
2022/05/25 10:25:08;;;;;;;21.98;18.77;;;;;;;;;;7392224;19;20649;-59
2022/05/25 10:27:39;;;;;;;22.55;19.08;;;;;;;;;;7390292;19;20036;-55
2022/05/25 10:38:28;;;;;;;15.15;13.65;;;;;;;;;;7368986;19;20016;-60
2022/05/25 10:40:57;;;;;;;16.33;14.70;;;;;;;;;;7397459;19;20019;-61
2022/05/25 10:43:26;;;;;;;16.80;13.73;;;;;;;;;;7398830;19;20015;-60
2022/05/25 10:45:56;;;;;;;15.60;12.60;;;;;;;;;;7398386;19;20042;-59
2022/05/25 10:48:32;;;;;;;14.52;11.77;;;;;;;;;;7396973;19;20018;-58
2022/05/25 10:51:06;;;;;;;12.02;10.82;;;;;;;;;;7397967;19;20020;-59
2022/05/25 10:53:38;;;;;;;14.45;11.60;;;;;;;;;;7400459;19;20011;-58
2022/05/25 10:56:10;;;;;;;14.05;11.52;;;;;;;;;;7398493;19;20029;-56
2022/05/25 10:58:59;;;;;;;12.43;11.23;;;;;;;;;;7399066;19;20020;-60
2022/05/25 11:01:48;;;;;;;12.70;11.45;;;;;;;;;;7401384;19;20455;-57
2022/05/25 11:04:27;;;;;;;14.30;12.60;;;;;;;;;;7397397;19;20002;-60
2022/05/25 11:07:13;;;;;;;15.23;12.88;;;;;;;;;;7397707;19;20051;-61
2022/05/25 11:09:58;;;;;;;14.57;13.07;;;;;;;;;;7399598;19;20078;-63
2022/05/25 11:12:34;;;;;;;16.98;14.68;;;;;;;;;;7397881;19;20062;-59
2022/05/25 11:15:08;;;;;;;17.05;13.50;;;;;;;;;;7398489;19;20017;-56
2022/05/25 11:17:42;;;;;;;15.45;12.80;;;;;;;;;;7395527;19;20011;-59
2022/05/25 11:20:16;;;;;;;14.57;12.30;;;;;;;;;;7397567;19;20025;-61
2022/05/25 11:22:53;;;;;;;14.25;10.52;;;;;;;;;;7398057;19;20019;-62
2022/05/25 11:25:30;;;;;;;10.30;8.00;;;;;;;;;;7399101;19;20010;-57
2022/05/25 11:28:07;;;;;;;7.55;6.85;;;;;;;;;;7396993;19;20011;-57
2022/05/25 11:30:42;;;;;;;6.82;5.85;;;;;;;;;;7398688;19;20018;-59
2022/05/25 11:33:19;;;;;;;7.13;5.30;;;;;;;;;;7398698;19;20078;-58
2022/05/25 11:35:52;;;;;;;7.85;5.38;;;;;;;;;;7398365;19;20035;-56
2022/05/25 11:38:29;;;;;;;5.97;4.47;;;;;;;;;;7397238;19;20030;-59
2022/05/25 11:41:03;;;;;;;7.13;4.40;;;;;;;;;;7396506;19;20020;-56
2022/05/25 11:43:49;;;;;;;6.82;4.80;;;;;;;;;;7403172;19;20090;-56
2022/05/25 11:46:21;;;;;;;32.85;4.57;;;;;;;;;;7399291;19;20077;-62
2022/05/25 11:49:02;;;;;;;5.55;3.10;;;;;;;;;;7405191;19;20040;-56
2022/05/25 11:51:34;;;;;;;5.93;3.00;;;;;;;;;;7398217;19;20076;-60
2022/05/25 11:54:11;;;;;;;7.60;3.70;;;;;;;;;;7396504;19;20086;-61
2022/05/25 11:56:50;;;;;;;5.85;2.80;;;;;;;;;;7395687;19;20015;-60
2022/05/25 11:59:33;;;;;;;4.50;3.72;;;;;;;;;;7400736;19;20026;-60
2022/05/25 12:02:07;;;;;;;7.20;3.22;;;;;;;;;;7396822;19;20402;-60
2022/05/25 12:04:45;;;;;;;8.80;4.80;;;;;;;;;;7396139;19;20019;-60
2022/05/25 12:07:20;;;;;;;97.75;9.40;;;;;;;;;;7395146;19;20086;-60
2022/05/25 12:10:03;;;;;;;10.32;5.00;;;;;;;;;;7395158;19;20033;-61
2022/05/25 12:12:36;;;;;;;4.25;3.72;;;;;;;;;;7395766;19;20090;-60
2022/05/25 12:15:09;;;;;;;6.55;3.30;;;;;;;;;;7399569;19;20007;-58
2022/05/25 12:17:43;;;;;;;7.45;4.00;;;;;;;;;;7393773;19;20020;-62
2022/05/25 12:20:13;;;;;;;4.65;3.60;;;;;;;;;;7394808;19;20014;-62
2022/05/25 12:22:44;;;;;;;4.00;2.63;;;;;;;;;;7395931;19;20034;-60
2022/05/25 12:25:17;;;;;;;7.93;3.08;;;;;;;;;;7395374;19;20498;-60
2022/05/25 12:27:45;;;;;;;;;;;;;;;;;;7395333;19;20026;-61
2022/05/25 12:30:17;;;;;;;6.97;3.10;;;;;;;;;;7397326;19;20280;-62
2022/05/25 12:32:46;;;;;;;6.88;2.80;;;;;;;;;;7395941;19;20014;-59
2022/05/25 12:35:16;;;;;;;12.00;3.28;;;;;;;;;;7395871;19;20010;-57
2022/05/25 12:37:46;;;;;;;3.72;2.78;;;;;;;;;;7395088;19;20081;-61
2022/05/25 12:40:37;;;;;;;3.40;3.10;;;;;;;;;;7394874;19;20010;-61
2022/05/25 12:43:06;;;;;;;5.88;3.22;;;;;;;;;;7394504;19;20024;-62
2022/05/25 12:48:34;;;;;;;4.20;2.60;;;;;;;;;;7394486;19;20014;-61
2022/05/25 12:51:07;;;;;;;5.20;2.22;;;;;;;;;;7393036;19;20081;-61
2022/05/25 12:53:37;;;;;;;10.90;2.38;;;;;;;;;;7395727;19;20014;-58
2022/05/25 12:56:15;;;;;;;4.78;2.70;;;;;;;;;;7394844;19;20018;-60
2022/05/25 12:58:46;;;;;;;8.57;2.58;;;;;;;;;;7397805;19;20006;-59
2022/05/25 13:01:41;;;;;;;7.47;2.88;;;;;;;;;;7400619;19;20097;-61
2022/05/25 13:04:21;;;;;;;6.57;2.92;;;;;;;;;;7405368;19;20051;-62
2022/05/25 13:07:04;;;;;;;3.97;2.10;;;;;;;;;;7399213;19;20018;-60
2022/05/25 13:09:40;;;;;;;6.22;2.50;;;;;;;;;;7403145;19;20027;-61
2022/05/25 13:12:24;;;;;;;14.60;3.45;;;;;;;;;;7399693;19;20055;-60
2022/05/25 13:14:59;;;;;;;5.53;2.88;;;;;;;;;;7395046;19;20013;-61
2022/05/25 13:17:45;;;;;;;4.47;2.50;;;;;;;;;;7392858;19;20030;-60
2022/05/25 13:20:18;;;;;;;6.85;2.78;;;;;;;;;;7397506;19;20010;-61
2022/05/25 13:22:46;;;;;;;;;;;;;;;;;;7395026;19;20014;-61
2022/05/25 13:25:24;;;;;;;3.00;2.30;;;;;;;;;;7393941;19;20294;-60
2022/05/25 13:28:09;;;;;;;4.22;2.30;;;;;;;;;;7392729;19;20013;-59
2022/05/25 13:30:53;;;;;;;4.28;2.40;;;;;;;;;;7392732;19;20025;-61
2022/05/25 13:33:27;;;;;;;5.93;2.40;;;;;;;;;;7393496;19;20029;-59
2022/05/25 13:35:58;;;;;;;5.72;2.45;;;;;;;;;;7392821;19;20097;-57
2022/05/25 13:38:29;;;;;;;4.95;2.58;;;;;;;;;;7396645;19;20014;-60
2022/05/25 13:40:59;;;;;;;5.45;2.60;;;;;;;;;;7393361;19;20018;-61
2022/05/25 13:43:38;;;;;;;5.72;3.10;;;;;;;;;;7392975;19;20488;-59
2022/05/25 13:46:13;;;;;;;10.55;2.90;;;;;;;;;;7397290;19;20479;-61
2022/05/25 13:48:52;;;;;;;3.45;2.20;;;;;;;;;;7392389;19;20017;-60
2022/05/25 13:51:21;;;;;;;4.28;2.50;;;;;;;;;;7392509;19;20657;-61
2022/05/25 13:53:51;;;;;;;10.48;3.05;;;;;;;;;;7393499;19;20014;-59
2022/05/25 13:56:21;;;;;;;10.00;2.88;;;;;;;;;;7392665;19;20017;-60
2022/05/25 13:58:52;;;;;;;5.53;2.60;;;;;;;;;;7392544;19;20468;-61
2022/05/25 14:01:22;;;;;;;4.60;2.20;;;;;;;;;;7393904;19;20010;-61
2022/05/25 14:03:57;;;;;;;15.63;2.90;;;;;;;;;;7392600;19;20019;-61
2022/05/25 14:06:25;;;;;;;4.38;2.30;;;;;;;;;;7391853;19;20363;-60
2022/05/25 14:11:38;;;;;;;6.38;2.60;;;;;;;;;;7392255;19;20019;-61
2022/05/25 14:14:18;;;;;;;9.45;2.88;;;;;;;;;;7394240;19;20022;-61
2022/05/25 14:16:50;;;;;;;5.05;2.60;;;;;;;;;;7399892;19;20094;-62
2022/05/25 14:19:26;;;;;;;7.35;2.60;;;;;;;;;;7398504;19;20086;-60
2022/05/25 14:21:55;;;;;;;5.72;2.63;;;;;;;;;;7399183;19;20360;-60
2022/05/25 14:24:25;;;;;;;9.10;3.00;;;;;;;;;;7398963;19;20390;-60
2022/05/25 14:26:54;;;;;;;6.28;2.67;;;;;;;;;;7396584;19;20361;-57
2022/05/25 14:29:23;;;;;;;5.60;2.60;;;;;;;;;;7393861;19;20022;-60
2022/05/25 14:31:52;;;;;;;4.38;2.42;;;;;;;;;;7398793;19;20028;-60
2022/05/25 14:34:22;;;;;;;8.73;2.30;;;;;;;;;;7402859;19;20048;-62
2022/05/25 14:36:54;;;;;;;11.77;2.42;;;;;;;;;;7397695;19;20028;-59
2022/05/25 14:39:25;;;;;;;5.85;2.05;;;;;;;;;;7399213;19;20094;-56
2022/05/25 14:41:55;;;;;;;8.48;2.00;;;;;;;;;;7399476;19;20018;-56
2022/05/25 14:44:44;;;;;;;7.78;2.17;;;;;;;;;;7399205;19;20014;-61
2022/05/25 14:47:28;;;;;;;4.35;2.17;;;;;;;;;;7397503;19;20024;-60
2022/05/25 14:49:58;;;;;;;7.63;2.10;;;;;;;;;;7403328;19;20352;-58
2022/05/25 14:52:30;;;;;;;5.40;2.53;;;;;;;;;;7401531;19;20070;-60
2022/05/25 14:55:03;;;;;;;4.45;2.08;;;;;;;;;;7402065;19;20019;-61
2022/05/25 14:57:32;;;;;;;6.80;2.38;;;;;;;;;;7398709;19;20025;-60
2022/05/25 15:00:00;;;;;;;4.60;2.20;;;;;;;;;;7400962;19;20082;-56
2022/05/25 15:02:35;;;;;;;3.58;2.20;;;;;;;;;;7397561;19;20015;-59
2022/05/25 15:05:18;;;;;;;7.10;1.90;;;;;;;;;;7397855;19;20018;-59
2022/05/25 15:07:55;;;;;;;6.28;2.05;;;;;;;;;;7395512;19;20017;-60
2022/05/25 15:10:30;;;;;;;11.52;2.72;;;;;;;;;;7396510;19;20388;-60
2022/05/25 15:12:59;;;;;;;3.35;1.92;;;;;;;;;;7397321;19;20042;-60
2022/05/25 15:20:56;;;;;;;5.25;2.28;;;;;;;;;;7396788;19;20036;-61
2022/05/25 15:23:29;;;;;;;11.23;2.97;;;;;;;;;;7401779;19;20014;-61
2022/05/25 15:25:57;;;;;;;6.20;2.00;;;;;;;;;;7395406;19;20021;-61